createdAt,value
2018-04-12T04:35:04.426Z,97.70
2018-04-12T04:37:36.320Z,97.80
2018-04-12T04:40:08.262Z,98.00
2018-04-12T04:42:40.149Z,97.90
2018-04-12T04:45:12.885Z,98.00
2018-04-12T04:47:44.773Z,97.90
2018-04-12T04:50:16.648Z,97.90
2018-04-12T04:52:49.286Z,97.90
2018-04-12T04:55:21.156Z,98.00
2018-04-12T04:57:53.123Z,98.10
2018-04-12T05:00:24.986Z,98.10
2018-04-12T05:02:57.197Z,98.00
2018-04-12T05:05:29.105Z,98.10
2018-04-12T05:08:00.996Z,98.10
2018-04-12T05:10:33.630Z,98.10
2018-04-12T05:13:05.534Z,98.10
2018-04-12T05:15:38.485Z,97.80
2018-04-12T05:18:10.334Z,97.80
2018-04-12T05:20:42.213Z,97.80
2018-04-12T05:23:14.093Z,97.80
2018-04-12T05:25:45.974Z,97.80
2018-04-12T05:28:18.629Z,97.40
2018-04-12T05:30:50.511Z,97.40
2018-04-12T05:33:23.162Z,97.10
2018-04-12T05:35:55.029Z,97.10
2018-04-12T05:38:27.229Z,97.20
2018-04-12T05:40:59.089Z,97.30
2018-04-12T05:43:30.974Z,97.40
2018-04-12T05:46:03.110Z,97.50
2018-04-12T05:48:34.999Z,97.50
2018-04-12T05:51:06.873Z,97.40
2018-04-12T05:53:38.830Z,97.30
2018-04-12T05:56:10.807Z,97.40
2018-04-12T05:58:42.690Z,97.60
2018-04-12T06:01:14.561Z,97.50
2018-04-12T06:03:47.226Z,97.50
2018-04-12T06:06:19.111Z,97.50
2018-04-12T06:08:50.999Z,97.60
2018-04-12T06:11:22.972Z,97.50
2018-04-12T06:13:54.948Z,97.50
2018-04-12T06:16:27.062Z,97.50
2018-04-12T06:18:58.967Z,97.60
2018-04-12T06:21:31.047Z,97.60
2018-04-12T06:24:03.261Z,97.90
2018-04-12T06:26:35.129Z,97.60
2018-04-12T06:29:07.117Z,97.60
2018-04-12T06:31:39.006Z,97.60
2018-04-12T06:34:10.948Z,97.20
2018-04-12T06:36:42.847Z,97.30
2018-04-12T06:39:15.748Z,97.10
2018-04-12T06:41:48.384Z,97.00
2018-04-12T06:44:21.864Z,96.90
2018-04-12T06:46:53.835Z,96.90
2018-04-12T06:49:25.745Z,96.80
2018-04-12T06:51:57.621Z,96.90
2018-04-12T06:54:29.765Z,96.60
2018-04-12T06:57:01.874Z,96.60
2018-04-12T06:59:33.881Z,96.10
2018-04-12T07:02:05.803Z,95.80
2018-04-12T07:04:37.782Z,96.10
2018-04-12T07:07:09.649Z,96.00
2018-04-12T07:09:41.641Z,95.90
2018-04-12T07:12:13.811Z,95.90
2018-04-12T07:14:45.973Z,96.00
2018-04-12T07:17:18.145Z,96.10
2018-04-12T07:19:50.050Z,96.00
2018-04-12T07:22:21.934Z,96.00
2018-04-12T07:24:53.877Z,96.10
2018-04-12T07:27:25.832Z,96.30
2018-04-12T07:29:58.054Z,96.60
2018-04-12T07:32:30.222Z,96.70
2018-04-12T07:35:02.124Z,96.90
2018-04-12T07:37:34.002Z,97.00
2018-04-12T07:40:06.213Z,96.90
2018-04-12T07:42:38.373Z,97.00
2018-04-12T07:45:10.270Z,97.00
2018-04-12T07:47:42.145Z,97.10
2018-04-12T07:50:14.097Z,97.10
2018-04-12T07:52:45.973Z,97.30
2018-04-12T07:55:17.861Z,96.70
2018-04-12T07:57:50.509Z,96.80
2018-04-12T08:00:22.459Z,96.80
2018-04-12T08:02:54.686Z,96.80
2018-04-12T08:05:26.573Z,96.90
2018-04-12T08:07:58.578Z,97.00
2018-04-12T08:10:30.512Z,97.00
2018-04-12T08:13:02.386Z,96.90
2018-04-12T08:15:34.341Z,96.70
2018-04-12T08:18:06.209Z,96.60
2018-04-12T08:20:38.092Z,96.70
2018-04-12T08:23:10.739Z,95.70
2018-04-12T08:25:42.692Z,95.70
2018-04-12T08:28:14.821Z,95.40
2018-04-12T08:30:46.983Z,95.50
2018-04-12T08:33:18.869Z,94.90
2018-04-12T08:35:50.784Z,94.10
2018-04-12T08:38:23.530Z,94.30
2018-04-12T08:40:55.653Z,94.20
2018-04-12T08:43:27.749Z,94.10
2018-04-12T08:45:59.634Z,94.10
2018-04-12T08:48:31.581Z,93.30
2018-04-12T08:51:03.473Z,93.40
2018-04-12T08:53:36.223Z,93.20
2018-04-12T08:56:08.182Z,92.80
2018-04-12T08:58:40.366Z,92.70
2018-04-12T09:01:12.578Z,92.70
2018-04-12T09:03:44.453Z,92.90
2018-04-12T09:06:17.522Z,92.70
2018-04-12T09:08:49.405Z,92.80
2018-04-12T09:11:21.565Z,92.40
2018-04-12T09:13:54.893Z,90.50
2018-04-12T09:16:26.865Z,90.70
2018-04-12T09:18:58.743Z,91.10
2018-04-12T09:21:32.061Z,90.30
2018-04-12T09:24:04.227Z,90.50
2018-04-12T09:26:36.113Z,89.60
2018-04-12T09:29:07.998Z,90.00
2018-04-12T09:31:39.950Z,90.20
2018-04-12T09:34:11.923Z,90.40
2018-04-12T09:36:43.873Z,90.10
2018-04-12T09:39:15.833Z,90.30
2018-04-12T09:41:47.964Z,90.50
2018-04-12T09:44:19.846Z,90.00
2018-04-12T09:46:51.830Z,90.10
2018-04-12T09:49:23.813Z,89.50
2018-04-12T09:51:56.011Z,88.10
2018-04-12T09:54:28.185Z,87.80
2018-04-12T09:57:00.449Z,87.90
2018-04-12T09:59:32.394Z,87.50
2018-04-12T10:02:05.118Z,86.40
2018-04-12T10:04:36.989Z,84.10
2018-04-12T10:07:09.213Z,85.40
2018-04-12T10:09:41.382Z,85.70
2018-04-12T10:12:13.524Z,84.40
2018-04-12T10:14:45.464Z,84.60
2018-04-12T10:17:17.368Z,84.60
2018-04-12T10:19:50.005Z,80.40
2018-04-12T10:22:21.957Z,80.30
2018-04-12T10:24:53.913Z,80.30
2018-04-12T10:27:25.878Z,79.10
2018-04-12T10:29:57.851Z,78.70
2018-04-12T10:32:29.780Z,77.60
2018-04-12T10:35:01.923Z,78.10
2018-04-12T10:37:33.826Z,78.80
2018-04-12T10:40:05.758Z,76.50
2018-04-12T10:42:37.646Z,77.80
2018-04-12T10:45:09.601Z,77.40
2018-04-12T10:47:41.537Z,76.30
2018-04-12T10:50:13.418Z,75.50
2018-04-12T10:52:45.389Z,75.30
2018-04-12T10:55:17.373Z,76.00
2018-04-12T10:57:49.325Z,75.60
2018-04-12T11:00:21.277Z,74.50
2018-04-12T11:02:53.237Z,75.50
2018-04-12T11:05:25.366Z,74.10
2018-04-12T11:07:57.284Z,75.00
2018-04-12T11:10:29.231Z,75.40
2018-04-12T11:13:01.116Z,75.00
2018-04-12T11:15:32.985Z,73.60
2018-04-12T11:18:05.641Z,74.30
2018-04-12T11:20:37.590Z,74.20
2018-04-12T11:23:09.813Z,73.80
2018-04-12T11:25:41.733Z,74.30
2018-04-12T11:28:13.622Z,74.50
2018-04-12T11:30:46.574Z,73.70
2018-04-12T11:33:18.826Z,73.50
2018-04-12T11:35:50.674Z,74.10
2018-04-12T11:38:22.578Z,74.20
2018-04-12T11:40:54.462Z,74.20
2018-04-12T11:43:27.164Z,73.40
2018-04-12T11:45:59.872Z,73.60
2018-04-12T11:48:31.766Z,73.60
2018-04-12T11:51:04.413Z,73.10
2018-04-12T11:53:36.377Z,73.00
2018-04-12T11:56:08.283Z,73.30
2018-04-12T11:58:40.154Z,74.00
2018-04-12T12:01:12.041Z,74.00
2018-04-12T12:03:43.934Z,73.50
2018-04-12T12:06:15.882Z,73.70
2018-04-12T12:08:47.778Z,74.10
2018-04-12T12:11:20.460Z,73.10
2018-04-12T12:13:53.117Z,73.70
2018-04-12T12:16:24.998Z,73.70
2018-04-12T12:18:57.898Z,74.20
2018-04-12T12:21:30.062Z,74.10
2018-04-12T12:24:01.960Z,74.10
2018-04-12T12:26:33.834Z,73.60
2018-04-12T12:29:05.740Z,74.30
2018-04-12T12:31:38.390Z,73.40
2018-04-12T12:34:10.277Z,73.40
2018-04-12T12:36:42.186Z,73.80
2018-04-12T12:39:14.077Z,74.60
2018-04-12T12:41:46.738Z,74.80
2018-04-12T12:44:18.621Z,74.50
2018-04-12T12:46:51.522Z,74.00
2018-04-12T12:49:23.421Z,74.00
2018-04-12T12:51:55.649Z,74.20
2018-04-12T12:54:28.142Z,74.30
2018-04-12T12:57:00.009Z,74.20
2018-04-12T12:59:31.900Z,74.10
2018-04-12T13:02:03.778Z,74.80
2018-04-12T13:04:35.662Z,74.70
2018-04-12T13:07:08.454Z,74.20
2018-04-12T13:09:40.342Z,74.10
2018-04-12T13:12:12.227Z,73.50
2018-04-12T13:14:44.126Z,73.70
2018-04-12T13:17:16.774Z,72.80
2018-04-12T13:19:48.662Z,72.60
2018-04-12T13:22:21.314Z,71.00
2018-04-12T13:24:53.207Z,71.00
2018-04-12T13:27:25.082Z,70.30
2018-04-12T13:29:57.234Z,70.50
2018-04-12T13:32:29.400Z,70.10
2018-04-12T13:35:01.565Z,70.10
2018-04-12T13:37:33.461Z,70.20
2018-04-12T13:40:05.356Z,70.00
2018-04-12T13:42:37.350Z,70.00
2018-04-12T13:45:09.248Z,69.50
2018-04-12T13:47:41.222Z,69.20
2018-04-12T13:50:13.178Z,69.10
2018-04-12T13:52:45.865Z,69.00
2018-04-12T13:55:17.865Z,69.50
2018-04-12T13:57:50.514Z,68.00
2018-04-12T14:00:23.180Z,68.60
2018-04-12T14:02:55.297Z,68.50
2018-04-12T14:05:27.201Z,68.10
2018-04-12T14:07:59.170Z,68.40
2018-04-12T14:10:31.058Z,67.90
2018-04-12T14:13:03.725Z,66.50
2018-04-12T14:15:36.028Z,66.40
2018-04-12T14:18:08.060Z,64.80
2018-04-12T14:20:40.002Z,64.80
2018-04-12T14:23:11.882Z,64.50
2018-04-12T14:25:43.863Z,65.00
2018-04-12T14:28:16.506Z,64.10
2018-04-12T14:30:48.723Z,64.10
2018-04-12T14:33:20.618Z,63.10
2018-04-12T14:35:52.590Z,63.40
2018-04-12T14:38:25.186Z,63.60
2018-04-12T14:40:57.081Z,62.70
2018-04-12T14:43:28.965Z,62.70
2018-04-12T14:46:00.945Z,62.00
2018-04-12T14:48:32.822Z,63.40
2018-04-12T14:51:04.740Z,63.40
2018-04-12T14:53:36.618Z,63.00
2018-04-12T14:56:09.280Z,63.70
2018-04-12T14:58:41.153Z,63.70
2018-04-12T15:01:13.041Z,63.90
2018-04-12T15:03:45.194Z,64.20
2018-04-12T15:06:17.103Z,62.60
2018-04-12T15:08:49.998Z,61.80
2018-04-12T15:11:22.161Z,61.80
2018-04-12T15:13:54.331Z,62.20
2018-04-12T15:16:26.212Z,62.50
2018-04-12T15:18:58.114Z,62.80
2018-04-12T15:21:30.054Z,62.80
2018-04-12T15:24:01.973Z,62.10
2018-04-12T15:26:33.874Z,61.50
2018-04-12T15:29:05.754Z,61.60
2018-04-12T15:31:37.688Z,61.90
2018-04-12T15:34:09.570Z,61.50
2018-04-12T15:36:41.458Z,61.40
2018-04-12T15:39:14.157Z,62.30
2018-04-12T15:41:46.323Z,62.30
2018-04-12T15:44:18.241Z,62.70
2018-04-12T15:46:50.353Z,62.90
2018-04-12T15:49:22.223Z,63.00
2018-04-12T15:51:54.125Z,63.00
2018-04-12T15:54:26.342Z,63.30
2018-04-12T15:56:58.299Z,63.10
2018-04-12T15:59:30.213Z,61.90
2018-04-12T16:02:02.142Z,61.60
2018-04-12T16:04:34.290Z,62.10
2018-04-12T16:07:06.205Z,61.90
2018-04-12T16:09:38.073Z,62.10
2018-04-12T16:12:09.958Z,62.00
2018-04-12T16:14:42.597Z,61.60
2018-04-12T16:17:14.826Z,61.60
2018-04-12T16:19:46.693Z,61.80
2018-04-12T16:22:18.841Z,61.90
2018-04-12T16:24:51.005Z,61.20
2018-04-12T16:27:22.899Z,60.90
2018-04-12T16:29:55.038Z,61.30
2018-04-12T16:32:26.934Z,61.30
2018-04-12T16:34:58.813Z,61.80
2018-04-12T16:37:30.693Z,61.30
2018-04-12T16:40:03.697Z,61.80
2018-04-12T16:42:35.865Z,61.70
2018-04-12T16:45:07.733Z,62.60
2018-04-12T16:47:39.630Z,62.00
2018-04-12T16:50:11.502Z,61.80
2018-04-12T16:52:43.386Z,61.50
2018-04-12T16:55:16.028Z,61.10
2018-04-12T16:57:47.913Z,61.10
2018-04-12T17:00:19.797Z,61.50
2018-04-12T17:02:52.438Z,63.00
2018-04-12T17:05:24.315Z,63.00
2018-04-12T17:07:56.201Z,63.60
2018-04-12T17:10:28.293Z,64.60
2018-04-12T17:13:00.182Z,65.40
2018-04-12T17:15:32.062Z,66.10
2018-04-12T17:18:04.085Z,67.30
2018-04-12T17:20:36.099Z,67.80
2018-04-12T17:23:08.908Z,69.20
2018-04-12T17:25:40.975Z,69.20
2018-04-12T17:28:13.057Z,69.80
2018-04-12T17:30:45.053Z,70.50
2018-04-12T17:33:17.733Z,71.20
2018-04-12T17:35:49.648Z,71.20
2018-04-12T17:38:21.635Z,71.20
2018-04-12T17:40:53.509Z,71.60
2018-04-12T17:43:25.398Z,71.80
2018-04-12T17:45:58.130Z,72.00
2018-04-12T17:48:30.018Z,71.80
2018-04-12T17:51:01.922Z,72.00
2018-04-12T17:53:33.814Z,72.10
2018-04-12T17:56:05.801Z,72.00
2018-04-12T17:58:37.695Z,72.20
2018-04-12T18:01:10.463Z,72.30
2018-04-12T18:03:43.109Z,72.50
2018-04-12T18:06:15.221Z,72.40
2018-04-12T18:08:47.155Z,72.40
2018-04-12T18:11:19.042Z,72.40
2018-04-12T18:13:50.925Z,72.50
2018-04-12T18:16:22.797Z,72.80
2018-04-12T18:18:54.764Z,73.30
2018-04-12T18:21:26.663Z,73.10
2018-04-12T18:23:59.464Z,73.40
2018-04-12T18:26:32.109Z,74.20
2018-04-12T18:29:04.052Z,74.20
2018-04-12T18:31:35.942Z,74.30
2018-04-12T18:34:08.618Z,74.10
2018-04-12T18:36:40.546Z,74.00
2018-04-12T18:39:12.773Z,73.40
2018-04-12T18:41:44.689Z,73.10
2018-04-12T18:44:16.903Z,72.60
2018-04-12T18:46:48.808Z,71.70
2018-04-12T18:49:20.695Z,71.50
2018-04-12T18:51:52.586Z,71.00
2018-04-12T18:54:24.765Z,71.30
2018-04-12T18:56:56.917Z,71.20
2018-04-12T18:59:28.801Z,71.40
2018-04-12T19:02:00.681Z,71.50
2018-04-12T19:04:32.649Z,71.70
2018-04-12T19:07:04.526Z,71.70
2018-04-12T19:09:36.829Z,72.10
2018-04-12T19:12:08.731Z,72.30
2018-04-12T19:14:40.623Z,72.50
2018-04-12T19:17:12.526Z,72.60
